Time;durP1;ratioP1;P1;durP2;ratioP2;P2;SDS_P1;SDS_P2;PMS_P1;PMS_P2;Temp;Humidity;BMP_temperature;BMP_pressure;BME280_temperature;BME280_humidity;BME280_pressure;Samples;Min_cycle;Max_cycle;Signal;HPM_P1;HPM_P2
2024/01/24 00:01:34;;;;;;;12.23;1.77;;;;;;;5.29;100.00;101062.56;5012455;28;20511;-65
2024/01/24 00:04:00;;;;;;;11.13;1.98;;;;;;;5.30;100.00;101044.34;5006064;28;20681;-64
2024/01/24 00:06:26;;;;;;;13.17;1.57;;;;;;;5.33;100.00;101034.06;5009759;28;20037;-63
2024/01/24 00:08:52;;;;;;;14.13;2.40;;;;;;;5.35;100.00;101031.56;5011402;28;20065;-65
2024/01/24 00:11:17;;;;;;;11.77;2.30;;;;;;;5.38;100.00;101016.94;5004573;28;20065;-67
2024/01/24 00:13:43;;;;;;;5.73;1.50;;;;;;;5.41;100.00;101000.53;5006381;28;20311;-63
2024/01/24 00:16:08;;;;;;;8.13;2.13;;;;;;;5.42;100.00;100995.41;5005717;28;20601;-64
2024/01/24 00:18:34;;;;;;;15.55;2.00;;;;;;;5.44;100.00;100985.91;5009063;28;20038;-63
2024/01/24 00:20:59;;;;;;;9.73;1.83;;;;;;;5.47;100.00;100980.00;5005578;28;20033;-65
2024/01/24 00:23:25;;;;;;;7.27;1.43;;;;;;;5.51;100.00;100971.50;5005944;28;20057;-65
2024/01/24 00:25:51;;;;;;;8.87;1.57;;;;;;;5.53;100.00;100946.31;5012725;28;20541;-65
2024/01/24 00:28:16;;;;;;;5.18;1.40;;;;;;;5.57;100.00;100938.75;5006670;28;20053;-63
2024/01/24 00:30:43;;;;;;;13.03;1.70;;;;;;;5.60;100.00;100924.94;5011587;28;20041;-65
2024/01/24 00:33:09;;;;;;;10.50;1.60;;;;;;;5.64;100.00;100932.19;5015656;28;20033;-67
2024/01/24 00:35:35;;;;;;;6.03;1.10;;;;;;;5.67;100.00;100932.38;5011694;28;20117;-64
2024/01/24 00:38:00;;;;;;;8.83;1.50;;;;;;;5.69;100.00;100919.38;5005940;28;20549;-65
2024/01/24 00:40:26;;;;;;;11.30;1.50;;;;;;;5.71;100.00;100900.31;5013293;28;20103;-66
2024/01/24 00:42:51;;;;;;;10.60;1.52;;;;;;;5.77;100.00;100902.44;5004331;28;20061;-67
2024/01/24 00:45:17;;;;;;;6.83;1.60;;;;;;;5.80;100.00;100879.91;5013126;28;20886;-63
2024/01/24 00:47:42;;;;;;;10.23;1.60;;;;;;;5.83;100.00;100866.09;5005681;28;20490;-67
2024/01/24 00:50:08;;;;;;;9.43;1.53;;;;;;;5.86;100.00;100864.59;5012730;28;20691;-64
2024/01/24 00:52:33;;;;;;;8.60;1.38;;;;;;;5.89;100.00;100858.63;5007693;28;20030;-64
2024/01/24 00:54:59;;;;;;;7.13;1.50;;;;;;;5.91;100.00;100847.44;5005668;28;20112;-63
2024/01/24 00:57:24;;;;;;;5.60;1.10;;;;;;;5.94;100.00;100824.03;5006578;28;20160;-63
2024/01/24 00:59:49;;;;;;;10.03;1.70;;;;;;;5.99;100.00;100827.84;5012585;28;20769;-64
2024/01/24 01:02:15;;;;;;;7.30;1.40;;;;;;;6.02;100.00;100819.22;5017178;28;20061;-63
2024/01/24 01:04:40;;;;;;;8.53;1.03;;;;;;;6.09;100.00;100800.44;5011793;28;20481;-63
2024/01/24 01:07:05;;;;;;;8.23;1.17;;;;;;;6.13;100.00;100767.44;5014323;28;20116;-61
2024/01/24 01:12:03;;;;;;;6.05;1.13;;;;;;;6.25;100.00;100749.81;5060243;28;20372;-60
2024/01/24 01:14:28;;;;;;;7.00;1.40;;;;;;;6.29;100.00;100754.41;5047600;28;20037;-60
2024/01/24 01:16:53;;;;;;;6.53;1.30;;;;;;;6.35;100.00;100744.28;5047994;28;20116;-60
2024/01/24 01:19:19;;;;;;;6.13;1.00;;;;;;;6.39;100.00;100741.00;5046788;28;20116;-60
2024/01/24 01:21:44;;;;;;;4.37;1.30;;;;;;;6.43;100.00;100724.63;5026635;28;20878;-60
2024/01/24 01:24:10;;;;;;;6.43;1.20;;;;;;;6.47;100.00;100717.00;5040161;28;20132;-60
2024/01/24 01:26:35;;;;;;;6.83;0.80;;;;;;;6.53;100.00;100710.31;5026853;28;20065;-59
2024/01/24 01:29:01;;;;;;;3.87;0.83;;;;;;;6.54;100.00;100702.53;5020865;28;20384;-60
2024/01/24 01:31:26;;;;;;;5.13;0.90;;;;;;;6.56;100.00;100697.38;5020976;28;20038;-58
2024/01/24 01:33:52;;;;;;;10.23;1.40;;;;;;;6.54;100.00;100692.03;5022561;28;20045;-60
2024/01/24 01:36:17;;;;;;;5.85;1.20;;;;;;;6.56;100.00;100686.88;5032255;28;20504;-62
2024/01/24 01:38:43;;;;;;;5.30;1.10;;;;;;;6.55;100.00;100674.56;5032285;28;20033;-63
2024/01/24 01:41:08;;;;;;;5.33;0.97;;;;;;;6.54;100.00;100657.94;5029460;28;20064;-62
2024/01/24 01:43:33;;;;;;;3.80;0.80;;;;;;;6.55;100.00;100635.22;5027930;28;20333;-63
2024/01/24 01:46:06;;;;;;;6.03;1.25;;;;;;;6.57;100.00;100651.94;5019636;28;20048;-65
2024/01/24 01:48:33;;;;;;;4.03;0.80;;;;;;;6.59;100.00;100645.97;5020595;28;20077;-63
2024/01/24 01:50:59;;;;;;;4.72;0.80;;;;;;;6.60;100.00;100633.75;5028156;28;20044;-61
2024/01/24 01:53:25;;;;;;;5.22;0.98;;;;;;;6.64;100.00;100639.25;5020214;28;20045;-62
2024/01/24 01:55:50;;;;;;;3.75;0.80;;;;;;;6.65;100.00;100648.94;5020196;28;20025;-61
2024/01/24 01:58:16;;;;;;;5.03;0.90;;;;;;;6.65;100.00;100642.78;5037239;28;20199;-62
2024/01/24 02:00:45;;;;;;;4.32;0.77;;;;;;;6.66;100.00;100611.34;5031729;28;20100;-63
2024/01/24 02:03:11;;;;;;;6.00;1.00;;;;;;;6.66;100.00;100611.34;5021223;28;20088;-63
2024/01/24 02:05:37;;;;;;;2.88;0.50;;;;;;;6.66;100.00;100594.72;5019281;28;20033;-63
2024/01/24 02:08:03;;;;;;;4.00;0.70;;;;;;;6.67;100.00;100591.25;5019754;28;20037;-62
2024/01/24 02:10:29;;;;;;;13.10;0.90;;;;;;;6.68;100.00;100590.44;5019217;28;20042;-62
2024/01/24 02:12:54;;;;;;;3.90;0.83;;;;;;;6.69;100.00;100566.91;5028027;28;20170;-62
2024/01/24 02:15:19;;;;;;;3.73;1.10;;;;;;;6.70;100.00;100563.47;5027018;28;20113;-63
2024/01/24 02:17:45;;;;;;;4.20;0.90;;;;;;;6.70;100.00;100573.06;5020571;28;20045;-63
2024/01/24 02:20:12;;;;;;;4.93;1.50;;;;;;;6.73;100.00;100573.22;5022106;28;20069;-61
2024/01/24 02:22:37;;;;;;;4.70;1.00;;;;;;;6.74;100.00;100568.06;5013295;28;20087;-62
2024/01/24 02:25:03;;;;;;;4.60;0.80;;;;;;;6.84;100.00;100585.19;5005781;28;20045;-61
2024/01/24 02:27:29;;;;;;;6.07;1.03;;;;;;;6.90;100.00;100562.81;5006217;28;20773;-62
2024/01/24 02:29:57;;;;;;;6.50;1.23;;;;;;;6.92;100.00;100570.75;5005551;28;20049;-61
2024/01/24 02:32:23;;;;;;;3.53;0.73;;;;;;;6.94;100.00;100562.13;4998075;28;20315;-63
2024/01/24 02:34:48;;;;;;;7.00;1.55;;;;;;;6.97;100.00;100543.00;5007703;28;20121;-64
2024/01/24 02:37:15;;;;;;;4.97;1.00;;;;;;;7.00;100.00;100534.41;5006060;28;20065;-64
2024/01/24 02:39:40;;;;;;;5.85;1.55;;;;;;;7.07;100.00;100540.03;5006240;28;20061;-62
2024/01/24 02:42:07;;;;;;;3.73;1.10;;;;;;;7.08;100.00;100528.72;5006112;28;20458;-62
2024/01/24 02:44:32;;;;;;;5.07;1.23;;;;;;;7.14;100.00;100526.41;5010537;28;20029;-63
2024/01/24 02:46:57;;;;;;;4.23;0.90;;;;;;;7.20;100.00;100510.94;5008709;28;20429;-63
2024/01/24 02:49:23;;;;;;;4.30;1.30;;;;;;;7.23;100.00;100512.81;5014066;28;20096;-62
2024/01/24 02:51:48;;;;;;;6.90;1.30;;;;;;;7.27;100.00;100496.38;5005719;28;20401;-61
2024/01/24 02:54:13;;;;;;;6.70;1.63;;;;;;;7.34;100.00;100493.25;5008184;28;20050;-63
2024/01/24 02:56:39;;;;;;;4.20;1.20;;;;;;;7.38;100.00;100498.72;5011921;28;21232;-62
2024/01/24 02:59:05;;;;;;;3.73;1.00;;;;;;;7.40;100.00;100472.50;5014741;28;20041;-64
2024/01/24 03:01:30;;;;;;;6.60;1.70;;;;;;;7.45;100.00;100467.50;5019080;28;20033;-63
2024/01/24 03:03:56;;;;;;;4.43;0.70;;;;;;;7.47;100.00;100473.72;5015096;28;20112;-63
2024/01/24 03:06:21;;;;;;;3.87;0.93;;;;;;;7.52;100.00;100486.25;5006284;28;20833;-62
2024/01/24 03:08:53;;;;;;;4.07;0.90;;;;;;;7.54;100.00;100483.72;5011237;28;20046;-62
2024/01/24 03:11:19;;;;;;;6.15;0.85;;;;;;;7.56;100.00;100472.44;5016765;28;20037;-60
2024/01/24 03:13:44;;;;;;;4.27;1.00;;;;;;;7.61;100.00;100477.91;5011393;28;20049;-63
2024/01/24 03:16:09;;;;;;;4.47;0.75;;;;;;;7.61;100.00;100454.25;5004508;28;20085;-62
2024/01/24 03:18:37;;;;;;;6.37;1.33;;;;;;;7.56;100.00;100461.94;5008572;28;20058;-62
2024/01/24 03:21:03;;;;;;;6.05;1.35;;;;;;;7.62;100.00;100456.97;5005054;28;20048;-62
2024/01/24 03:23:28;;;;;;;5.03;1.17;;;;;;;7.69;100.00;100480.13;5014171;28;20414;-62
2024/01/24 03:25:54;;;;;;;5.30;1.00;;;;;;;7.76;100.00;100463.78;5005654;28;20049;-62
2024/01/24 03:28:19;;;;;;;6.20;0.77;;;;;;;7.79;100.00;100468.31;5005000;28;20033;-62
2024/01/24 03:30:44;;;;;;;6.50;0.90;;;;;;;7.81;100.00;100453.47;5005319;28;20124;-59
2024/01/24 03:33:10;;;;;;;3.67;0.93;;;;;;;7.83;100.00;100446.59;5013908;28;20041;-62
2024/01/24 03:35:35;;;;;;;4.20;1.00;;;;;;;7.84;100.00;100455.38;5010984;28;20172;-62
2024/01/24 03:38:01;;;;;;;3.70;1.00;;;;;;;7.85;100.00;100462.41;5004584;28;20125;-62
2024/01/24 03:40:26;;;;;;;3.70;1.00;;;;;;;7.90;100.00;100450.38;5005007;28;20385;-65
2024/01/24 03:42:51;;;;;;;5.67;1.10;;;;;;;7.93;100.00;100455.78;5004551;28;20506;-64
2024/01/24 03:45:17;;;;;;;7.67;1.20;;;;;;;7.96;100.00;100441.06;5012040;28;20037;-63
2024/01/24 03:47:42;;;;;;;5.55;1.15;;;;;;;8.01;100.00;100431.66;5013990;28;20445;-66
2024/01/24 03:50:08;;;;;;;6.13;1.07;;;;;;;8.05;100.00;100432.69;5002936;28;20077;-65
2024/01/24 03:52:33;;;;;;;7.00;1.27;;;;;;;8.10;100.00;100425.91;5004761;28;20068;-69
2024/01/24 03:54:58;;;;;;;5.18;1.08;;;;;;;8.10;100.00;100434.69;5008269;28;20111;-67
2024/01/24 03:57:24;;;;;;;3.53;1.03;;;;;;;8.15;100.00;100432.28;5010091;28;20562;-64
2024/01/24 03:59:49;;;;;;;5.00;1.20;;;;;;;8.17;100.00;100415.75;5011748;28;20029;-66
2024/01/24 04:02:14;;;;;;;3.67;0.93;;;;;;;8.21;100.00;100422.03;5013250;28;20037;-64
2024/01/24 04:04:40;;;;;;;5.17;1.00;;;;;;;8.24;100.00;100409.00;5004369;28;20038;-70
2024/01/24 04:07:05;;;;;;;4.30;0.70;;;;;;;8.27;100.00;100392.47;5003686;28;20109;-65
2024/01/24 04:09:31;;;;;;;5.93;1.20;;;;;;;8.30;100.00;100382.09;5012090;28;20514;-64
2024/01/24 04:11:56;;;;;;;4.93;1.03;;;;;;;8.34;100.00;100378.81;5012065;28;20121;-67
2024/01/24 04:14:22;;;;;;;4.40;0.90;;;;;;;8.39;100.00;100370.25;5003223;28;20041;-64
2024/01/24 04:16:47;;;;;;;6.57;1.00;;;;;;;8.42;100.00;100386.19;5011755;28;20038;-69
2024/01/24 04:19:12;;;;;;;8.63;1.10;;;;;;;8.47;100.00;100366.22;5008604;28;20484;-66
2024/01/24 04:21:43;;;;;;;5.60;1.40;;;;;;;8.49;100.00;100368.91;5010105;28;20038;-64
2024/01/24 04:24:08;;;;;;;5.95;1.10;;;;;;;8.55;100.00;100370.09;5003239;28;20053;-72
2024/01/24 04:26:33;;;;;;;7.10;1.50;;;;;;;8.59;100.00;100356.22;5016866;28;20086;-64
2024/01/24 04:28:59;;;;;;;6.27;0.90;;;;;;;8.65;100.00;100345.94;5013108;28;20049;-66
2024/01/24 04:31:24;;;;;;;7.40;1.30;;;;;;;8.78;100.00;100322.78;5009088;28;20611;-67
2024/01/24 04:33:49;;;;;;;5.20;1.20;;;;;;;9.02;100.00;100324.69;5011596;28;20121;-63
2024/01/24 04:36:15;;;;;;;5.00;0.80;;;;;;;9.51;100.00;100321.31;5004654;28;20507;-67
2024/01/24 04:38:40;;;;;;;5.27;1.00;;;;;;;9.34;100.00;100315.38;5019089;28;20131;-64
2024/01/24 04:41:08;;;;;;;4.60;1.10;;;;;;;9.27;100.00;100333.56;5008521;28;20060;-64
2024/01/24 04:43:34;;;;;;;5.32;1.05;;;;;;;9.24;100.00;100313.22;5011703;28;20684;-68
2024/01/24 04:46:00;;;;;;;6.97;1.73;;;;;;;9.29;100.00;100324.84;5012366;28;20040;-63
2024/01/24 04:48:25;;;;;;;5.10;0.90;;;;;;;9.35;100.00;100316.28;5013356;28;20045;-69
2024/01/24 04:50:50;;;;;;;3.87;0.87;;;;;;;9.36;100.00;100307.56;5011644;28;20137;-65
2024/01/24 04:53:16;;;;;;;3.97;0.87;;;;;;;9.38;100.00;100311.13;5020713;28;20038;-66
2024/01/24 04:55:41;;;;;;;4.68;0.80;;;;;;;9.38;100.00;100304.13;5010230;28;20037;-67
2024/01/24 04:58:07;;;;;;;7.90;0.80;;;;;;;9.40;100.00;100291.91;5021707;28;20149;-64
2024/01/24 05:00:32;;;;;;;5.83;0.80;;;;;;;9.41;100.00;100298.09;5012041;28;20041;-63
2024/01/24 05:02:57;;;;;;;5.00;1.30;;;;;;;9.42;100.00;100284.06;5009186;28;20316;-67
2024/01/24 05:05:23;;;;;;;7.73;1.00;;;;;;;9.48;100.00;100277.28;5016845;28;20132;-65
2024/01/24 05:07:48;;;;;;;5.20;1.00;;;;;;;9.58;100.00;100294.34;5010554;28;20042;-68
2024/01/24 05:10:14;;;;;;;4.90;0.90;;;;;;;9.63;100.00;100295.41;5013583;28;20125;-67
2024/01/24 05:12:40;;;;;;;7.22;0.95;;;;;;;9.63;100.00;100286.59;5014386;28;20045;-67
2024/01/24 05:15:08;;;;;;;5.43;1.10;;;;;;;9.64;100.00;100283.13;5013909;28;20700;-67
2024/01/24 05:17:33;;;;;;;4.55;1.40;;;;;;;9.71;100.00;100287.78;5006432;28;20111;-67
2024/01/24 05:19:58;;;;;;;4.57;0.80;;;;;;;9.76;100.00;100295.03;5017151;28;20041;-66
2024/01/24 05:22:24;;;;;;;5.37;0.90;;;;;;;9.80;100.00;100283.75;4998302;28;20034;-64
2024/01/24 05:24:49;;;;;;;4.37;1.07;;;;;;;9.81;100.00;100269.72;5006011;28;20037;-67
2024/01/24 05:27:15;;;;;;;4.07;0.80;;;;;;;9.85;100.00;100274.28;5014176;28;20127;-64
2024/01/24 05:29:41;;;;;;;7.70;0.80;;;;;;;9.87;100.00;100277.84;5010041;28;20038;-64
2024/01/24 05:32:06;;;;;;;5.72;0.80;;;;;;;9.88;100.00;100265.56;5009689;28;20049;-66
2024/01/24 05:34:32;;;;;;;3.77;1.00;;;;;;;9.92;100.00;100249.00;5012323;28;20042;-64
2024/01/24 05:36:58;;;;;;;6.10;1.00;;;;;;;9.92;100.00;100254.25;5013769;28;20091;-69
2024/01/24 05:39:23;;;;;;;4.30;0.90;;;;;;;9.92;100.00;100259.53;5009719;28;20067;-63
2024/01/24 05:41:49;;;;;;;4.32;0.75;;;;;;;9.89;100.00;100244.50;5022361;28;20802;-64
2024/01/24 05:44:15;;;;;;;3.43;0.80;;;;;;;9.96;100.00;100251.78;5022654;28;20084;-65
2024/01/24 05:46:40;;;;;;;4.60;0.87;;;;;;;9.97;100.00;100245.69;5009168;28;20469;-65
2024/01/24 05:49:06;;;;;;;4.80;0.90;;;;;;;10.03;100.00;100241.47;5003676;28;20391;-70
2024/01/24 05:51:31;;;;;;;7.13;0.90;;;;;;;10.05;100.00;100237.16;5018199;28;20228;-64
2024/01/24 05:53:56;;;;;;;3.77;0.70;;;;;;;10.07;100.00;100235.44;5003065;28;20042;-68
2024/01/24 05:56:22;;;;;;;3.15;0.70;;;;;;;10.07;100.00;100238.06;5008993;28;20116;-67
2024/01/24 05:58:47;;;;;;;4.23;0.90;;;;;;;10.04;100.00;100232.69;5020795;28;20037;-68
2024/01/24 06:01:13;;;;;;;3.87;0.73;;;;;;;9.97;100.00;100235.13;5015022;28;20044;-63
2024/01/24 06:03:40;;;;;;;6.07;1.10;;;;;;;9.94;100.00;100219.19;5015243;28;20191;-72
2024/01/24 06:06:05;;;;;;;4.75;0.70;;;;;;;9.96;100.00;100235.09;5006316;28;20096;-69
2024/01/24 06:08:31;;;;;;;3.97;0.93;;;;;;;9.94;100.00;100223.56;5010742;28;20049;-65
2024/01/24 06:10:56;;;;;;;5.23;0.73;;;;;;;9.96;100.00;100225.41;5009727;28;20033;-68
2024/01/24 06:13:22;;;;;;;4.07;0.70;;;;;;;9.95;100.00;100204.28;5014881;28;20049;-67
2024/01/24 06:15:47;;;;;;;4.22;0.93;;;;;;;9.98;100.00;100226.38;5012286;28;20697;-68
2024/01/24 06:18:13;;;;;;;5.93;1.00;;;;;;;10.03;100.00;100233.53;5023929;28;20033;-65
2024/01/24 06:20:38;;;;;;;2.70;0.60;;;;;;;10.02;100.00;100224.72;5014124;28;20132;-70
2024/01/24 06:23:03;;;;;;;3.47;0.70;;;;;;;10.02;100.00;100230.00;5006176;28;20582;-66
2024/01/24 06:25:29;;;;;;;3.50;0.80;;;;;;;10.03;100.00;100242.34;5005840;28;20117;-64
2024/01/24 06:27:54;;;;;;;2.90;0.70;;;;;;;10.06;100.00;100231.94;5006324;28;20037;-65
2024/01/24 06:30:20;;;;;;;3.67;0.90;;;;;;;10.12;100.00;100204.81;5013777;28;20068;-67
2024/01/24 06:32:46;;;;;;;3.50;0.77;;;;;;;10.22;100.00;100210.50;5012310;28;20045;-68
2024/01/24 06:35:12;;;;;;;4.65;0.68;;;;;;;10.28;100.00;100218.63;5017137;28;20041;-63
2024/01/24 06:37:37;;;;;;;5.37;0.80;;;;;;;10.36;100.00;100218.91;5012176;28;20037;-66
2024/01/24 06:40:05;;;;;;;4.25;0.68;;;;;;;10.37;100.00;100228.59;5005478;28;20077;-66
2024/01/24 06:42:30;;;;;;;5.83;1.00;;;;;;;10.36;100.00;100205.72;5005619;28;20117;-69
2024/01/24 06:44:56;;;;;;;3.42;0.82;;;;;;;10.34;100.00;100229.41;5015162;28;20555;-65
2024/01/24 06:47:21;;;;;;;3.57;0.70;;;;;;;10.34;100.00;100218.84;5016501;28;20124;-66
2024/01/24 06:49:47;;;;;;;5.30;0.80;;;;;;;10.33;100.00;100232.88;5020127;28;20128;-67
2024/01/24 06:52:12;;;;;;;4.77;1.10;;;;;;;10.33;100.00;100237.28;5025670;28;20494;-68
2024/01/24 06:54:37;;;;;;;7.23;1.80;;;;;;;10.32;100.00;100235.47;5013859;28;20383;-72
2024/01/24 06:57:03;;;;;;;5.07;1.00;;;;;;;10.33;100.00;100245.19;5013628;28;20049;-67
2024/01/24 06:59:30;;;;;;;3.83;0.93;;;;;;;10.34;100.00;100257.53;5005033;28;20073;-69
2024/01/24 07:01:56;;;;;;;4.43;0.73;;;;;;;10.36;100.00;100235.63;5013056;28;20414;-68
2024/01/24 07:04:21;;;;;;;3.77;0.77;;;;;;;10.38;100.00;100240.97;5008500;28;20041;-67
2024/01/24 07:06:46;;;;;;;2.70;0.50;;;;;;;10.45;100.00;100260.56;5018580;28;20885;-69
2024/01/24 07:09:12;;;;;;;2.92;0.40;;;;;;;10.44;100.00;100293.06;5006415;28;20190;-66
2024/01/24 07:11:39;;;;;;;5.57;0.67;;;;;;;10.42;100.00;100289.47;5011615;28;20481;-69
2024/01/24 07:14:05;;;;;;;4.65;0.77;;;;;;;10.36;100.00;100300.75;5013261;28;20053;-69
2024/01/24 07:16:30;;;;;;;3.95;0.50;;;;;;;10.33;100.00;100334.94;5008894;28;20421;-72
2024/01/24 07:18:56;;;;;;;3.87;0.90;;;;;;;10.32;100.00;100356.88;5009071;28;20046;-67
2024/01/24 07:21:21;;;;;;;8.50;0.70;;;;;;;10.30;100.00;100343.66;5013356;28;20121;-67
2024/01/24 07:23:46;;;;;;;13.80;1.40;;;;;;;10.28;100.00;100357.63;5005375;28;20402;-70
2024/01/24 07:26:12;;;;;;;10.73;0.90;;;;;;;10.25;100.00;100350.50;5013063;28;20052;-66
2024/01/24 07:28:38;;;;;;;11.85;0.98;;;;;;;10.20;100.00;100351.19;5013680;28;20104;-71
2024/01/24 07:31:03;;;;;;;8.23;1.20;;;;;;;10.19;100.00;100345.00;5013230;28;20077;-67
2024/01/24 07:33:28;;;;;;;6.97;1.27;;;;;;;10.13;100.00;100334.19;5007737;28;20756;-68
2024/01/24 07:35:54;;;;;;;6.40;0.80;;;;;;;10.10;100.00;100323.53;5012230;28;20434;-66
2024/01/24 07:38:20;;;;;;;5.17;0.87;;;;;;;10.10;100.00;100312.06;5014270;28;20052;-75
2024/01/24 07:40:45;;;;;;;6.53;0.88;;;;;;;10.05;100.00;100313.66;5005205;28;20066;-68
2024/01/24 07:43:10;;;;;;;5.70;1.03;;;;;;;10.01;100.00;100298.56;5015107;28;20045;-73
2024/01/24 07:45:36;;;;;;;5.20;0.73;;;;;;;9.99;100.00;100309.06;5019178;28;20120;-68
2024/01/24 07:48:02;;;;;;;11.93;1.50;;;;;;;10.03;100.00;100312.69;5004699;28;20461;-68
2024/01/24 07:50:27;;;;;;;11.32;1.33;;;;;;;10.00;100.00;100304.69;5011158;28;20064;-70
2024/01/24 07:52:52;;;;;;;6.13;1.00;;;;;;;9.94;100.00;100311.53;5020676;28;20131;-66
2024/01/24 07:55:18;;;;;;;8.73;1.30;;;;;;;9.92;100.00;100307.03;5015744;28;20049;-68
2024/01/24 07:57:43;;;;;;;6.87;1.33;;;;;;;9.93;100.00;100319.38;5010247;28;20113;-71
2024/01/24 08:00:16;;;;;;;7.90;1.80;;;;;;;9.88;100.00;100321.84;5012218;28;20033;-71
2024/01/24 08:02:42;;;;;;;15.00;2.13;;;;;;;9.86;100.00;100312.09;4998842;28;20056;-67
2024/01/24 08:05:08;;;;;;;12.13;1.58;;;;;;;9.88;100.00;100311.28;5012226;28;20497;-68
2024/01/24 08:07:33;;;;;;;7.33;1.53;;;;;;;9.90;100.00;100320.19;5004708;28;20116;-67
2024/01/24 08:09:58;;;;;;;10.32;1.52;;;;;;;9.88;100.00;100318.31;5004411;28;20660;-72
2024/01/24 08:12:24;;;;;;;11.77;1.70;;;;;;;9.86;100.00;100325.28;5013625;28;20120;-70
2024/01/24 08:14:49;;;;;;;11.53;1.60;;;;;;;9.87;100.00;100343.78;5004433;28;20041;-71
2024/01/24 08:17:15;;;;;;;11.47;1.50;;;;;;;9.96;100.00;100340.59;5006635;28;20128;-75
2024/01/24 08:19:40;;;;;;;10.35;1.40;;;;;;;10.08;100.00;100343.69;5015145;28;20033;-67
2024/01/24 08:22:06;;;;;;;7.53;0.93;;;;;;;10.14;100.00;100351.81;5014893;28;20064;-73
2024/01/24 08:24:31;;;;;;;11.47;1.10;;;;;;;10.17;100.00;100336.13;5016691;28;20113;-67
2024/01/24 08:26:57;;;;;;;11.02;1.40;;;;;;;10.25;100.00;100328.50;5007828;28;20060;-72
2024/01/24 08:29:25;;;;;;;7.30;1.77;;;;;;;10.30;100.00;100316.38;5006749;28;20049;-67
2024/01/24 08:31:51;;;;;;;12.75;1.55;;;;;;;10.37;100.00;100319.25;5016654;28;20033;-67
2024/01/24 08:34:17;;;;;;;7.93;1.40;;;;;;;10.42;100.00;100313.22;5006290;28;20057;-70
2024/01/24 08:36:43;;;;;;;9.48;1.15;;;;;;;10.44;100.00;100322.09;5003599;28;20042;-73
2024/01/24 08:39:08;;;;;;;10.73;1.40;;;;;;;10.52;100.00;100321.53;5004986;28;20037;-71
2024/01/24 08:41:33;;;;;;;5.05;0.88;;;;;;;10.58;100.00;100326.13;5011121;28;20037;-70
2024/01/24 08:43:59;;;;;;;5.83;1.00;;;;;;;10.64;100.00;100340.44;5003628;28;20050;-68
2024/01/24 08:46:25;;;;;;;13.48;1.98;;;;;;;10.70;100.00;100327.44;4995378;28;20046;-72
2024/01/24 08:48:51;;;;;;;5.53;1.00;;;;;;;10.73;100.00;100338.09;5004049;28;20510;-68
2024/01/24 08:51:17;;;;;;;7.97;1.10;;;;;;;10.79;100.00;100346.25;5009969;28;20130;-67
2024/01/24 08:53:42;;;;;;;13.50;1.43;;;;;;;10.82;100.00;100341.06;5003971;28;20080;-75
2024/01/24 08:56:09;;;;;;;8.73;1.00;;;;;;;10.90;100.00;100373.03;5004025;28;20501;-70
2024/01/24 08:58:36;;;;;;;10.27;1.20;;;;;;;10.91;100.00;100434.66;5003778;28;20045;-69
2024/01/24 09:01:02;;;;;;;9.38;1.20;;;;;;;10.66;100.00;100439.09;5009928;28;20087;-72
2024/01/24 09:03:27;;;;;;;9.87;1.47;;;;;;;10.28;100.00;100429.78;5011702;28;20053;-75
2024/01/24 09:05:52;;;;;;;4.63;0.70;;;;;;;9.92;100.00;100466.19;5011452;28;20047;-69
2024/01/24 09:08:18;;;;;;;4.53;0.77;;;;;;;9.67;100.00;100467.84;5003230;28;20126;-71
2024/01/24 09:12:58;;;;;;;7.82;1.45;;;;;;;9.38;100.00;100487.72;5102078;27;20393;-69
2024/01/24 09:15:23;;;;;;;7.67;1.00;;;;;;;9.30;100.00;100457.53;5101486;28;20040;-69
2024/01/24 09:17:48;;;;;;;12.13;1.42;;;;;;;9.23;100.00;100464.25;5100335;28;20040;-69
2024/01/24 09:20:14;;;;;;;8.63;1.20;;;;;;;9.13;100.00;100463.84;5100792;28;20063;-72
2024/01/24 09:22:39;;;;;;;10.40;1.53;;;;;;;9.04;100.00;100449.41;5101152;28;20472;-68
2024/01/24 09:25:05;;;;;;;9.03;1.37;;;;;;;8.97;100.00;100444.75;5100857;27;20063;-74
2024/01/24 09:27:31;;;;;;;8.80;1.42;;;;;;;8.92;100.00;100434.84;5101050;28;20032;-68
2024/01/24 09:29:56;;;;;;;12.07;1.60;;;;;;;8.88;100.00;100433.78;5100370;28;20048;-67
2024/01/24 09:32:22;;;;;;;8.97;1.10;;;;;;;8.88;100.00;100433.78;5101421;28;20046;-73
2024/01/24 09:34:47;;;;;;;8.90;1.30;;;;;;;8.91;100.00;100448.84;5104008;28;20322;-74
2024/01/24 09:37:12;;;;;;;15.00;1.10;;;;;;;8.95;100.00;100451.66;5101805;28;20119;-71
2024/01/24 09:39:38;;;;;;;8.38;0.98;;;;;;;9.01;100.00;100456.31;5102579;28;20040;-71
2024/01/24 09:42:08;;;;;;;13.13;1.57;;;;;;;9.09;100.00;100454.88;5101589;28;20043;-68
2024/01/24 09:44:34;;;;;;;6.68;1.33;;;;;;;9.19;100.00;100443.00;5101306;28;20062;-67
2024/01/24 09:47:01;;;;;;;13.20;1.20;;;;;;;9.29;100.00;100453.06;5100537;28;20538;-69
2024/01/24 09:49:30;;;;;;;10.82;1.50;;;;;;;9.37;100.00;100449.03;5101061;28;20135;-67
2024/01/24 09:51:57;;;;;;;11.98;2.05;;;;;;;9.41;100.00;100457.13;5101031;28;20071;-67
2024/01/24 09:54:23;;;;;;;7.75;1.52;;;;;;;9.36;100.00;100440.22;5100517;28;20063;-67
2024/01/24 09:56:51;;;;;;;11.47;1.40;;;;;;;9.41;100.00;100449.22;5100033;28;20198;-68
2024/01/24 09:59:16;;;;;;;16.15;1.88;;;;;;;9.58;100.00;100443.72;5099853;28;20044;-72
2024/01/24 10:01:41;;;;;;;15.03;2.37;;;;;;;9.73;100.00;100432.03;5106858;28;20040;-69
2024/01/24 10:04:07;;;;;;;10.77;1.23;;;;;;;9.81;100.00;100411.25;5099694;28;20488;-75
2024/01/24 10:06:32;;;;;;;10.97;1.57;;;;;;;9.91;100.00;100411.66;5087902;28;20058;-69
2024/01/24 10:08:58;;;;;;;13.30;1.30;;;;;;;10.12;100.00;100432.66;5080077;28;20036;-74
2024/01/24 10:11:24;;;;;;;8.75;1.58;;;;;;;10.29;100.00;100415.75;5091149;28;20057;-72
2024/01/24 10:13:50;;;;;;;19.75;1.77;;;;;;;10.34;100.00;100426.47;5084273;28;20428;-70
2024/01/24 10:16:15;;;;;;;16.03;1.97;;;;;;;10.27;100.00;100421.81;5087576;28;20051;-74
2024/01/24 10:18:42;;;;;;;13.83;2.07;;;;;;;10.24;100.00;100449.00;5087895;28;20090;-67
2024/01/24 10:21:07;;;;;;;19.98;2.25;;;;;;;10.45;100.00;100440.97;5096444;28;20425;-69
2024/01/24 10:23:33;;;;;;;16.60;2.40;;;;;;;10.70;100.00;100430.47;5084366;28;20154;-71
2024/01/24 10:25:59;;;;;;;9.43;1.92;;;;;;;10.92;100.00;100444.38;5077897;28;20040;-73
2024/01/24 10:28:25;;;;;;;13.60;1.73;;;;;;;11.05;100.00;100446.63;5086553;28;20039;-70
2024/01/24 10:30:51;;;;;;;13.87;2.13;;;;;;;11.16;100.00;100471.66;5077201;28;20047;-66
2024/01/24 10:33:17;;;;;;;15.35;2.22;;;;;;;11.25;100.00;100479.91;5081253;28;20050;-69
2024/01/24 10:35:43;;;;;;;11.13;2.25;;;;;;;11.17;100.00;100444.38;5082192;28;20063;-76
2024/01/24 10:38:12;;;;;;;11.10;1.73;;;;;;;11.12;100.00;100435.41;5077799;28;20075;-67
2024/01/24 10:40:41;;;;;;;16.98;1.92;;;;;;;11.13;100.00;100445.13;5074669;28;20075;-69
2024/01/24 10:43:13;;;;;;;20.27;2.50;;;;;;;11.07;100.00;100452.84;5082913;28;20043;-65
2024/01/24 10:45:44;;;;;;;19.02;2.28;;;;;;;11.07;100.00;100463.41;5077301;28;20133;-70
2024/01/24 10:48:10;;;;;;;12.43;1.83;;;;;;;11.04;100.00;100473.91;5085847;28;20556;-67
2024/01/24 10:50:39;;;;;;;19.73;2.20;;;;;;;11.01;100.00;100479.97;5092747;28;20554;-70
2024/01/24 10:53:05;;;;;;;16.85;2.33;;;;;;;10.99;100.00;100467.56;5086260;28;20040;-65
2024/01/24 10:55:34;;;;;;;9.73;1.77;;;;;;;10.93;100.00;100469.97;5078881;28;20036;-70
2024/01/24 10:57:59;;;;;;;15.73;1.92;;;;;;;10.89;100.00;100490.13;5086925;28;20044;-67
2024/01/24 11:00:25;;;;;;;20.60;2.40;;;;;;;10.96;100.00;100465.69;5087711;28;20036;-67
2024/01/24 11:05:22;;;;;;;16.08;1.90;;;;;;;11.03;100.00;100472.09;5061852;28;20372;-64
2024/01/24 11:07:55;;;;;;;17.70;2.65;;;;;;;11.06;100.00;100486.31;5062624;28;20101;-66
2024/01/24 11:10:25;;;;;;;10.38;1.67;;;;;;;11.04;100.00;100490.66;5057788;28;20064;-69
2024/01/24 11:12:50;;;;;;;13.05;1.83;;;;;;;11.09;98.00;100477.59;5057092;28;20131;-65
2024/01/24 11:15:16;;;;;;;13.53;1.73;;;;;;;11.13;97.28;100480.41;5042460;28;20894;-68
2024/01/24 11:17:46;;;;;;;11.98;2.03;;;;;;;11.16;97.13;100490.16;5060708;28;20044;-70
2024/01/24 11:20:12;;;;;;;12.50;1.77;;;;;;;11.17;96.66;100502.53;5060245;28;20032;-70
2024/01/24 11:22:37;;;;;;;11.80;1.80;;;;;;;11.18;94.11;100494.66;5055656;28;20399;-65